createdAt,value
2023-05-05T00:00:28.590Z,9.430348
2023-05-05T00:01:28.585Z,9.430321
2023-05-05T00:02:28.634Z,9.430326
2023-05-05T00:03:28.656Z,9.430356
2023-05-05T00:04:28.600Z,9.430360
2023-05-05T00:05:28.538Z,9.430360
2023-05-05T00:06:28.530Z,9.430329
2023-05-05T00:07:28.573Z,9.430305
2023-05-05T00:08:28.525Z,9.430341
2023-05-05T00:09:28.521Z,9.430325
2023-05-05T00:10:28.551Z,9.430353
2023-05-05T00:11:28.533Z,9.430381
2023-05-05T00:12:28.488Z,9.430330
2023-05-05T00:13:28.478Z,9.430354
2023-05-05T00:14:28.513Z,9.430347
2023-05-05T00:15:28.436Z,9.430352
2023-05-05T00:16:28.469Z,9.430358
2023-05-05T00:17:28.441Z,9.430366
2023-05-05T00:18:28.442Z,9.430333
2023-05-05T00:19:28.435Z,9.430365
2023-05-05T00:20:28.407Z,9.430353
2023-05-05T00:21:28.390Z,9.430382
2023-05-05T00:22:28.411Z,9.430381
2023-05-05T00:23:28.407Z,9.430383
2023-05-05T00:24:28.342Z,9.430367
2023-05-05T00:25:28.374Z,9.430362
2023-05-05T00:26:28.397Z,9.430352
2023-05-05T00:27:28.408Z,9.430378
2023-05-05T00:28:28.340Z,9.430387
2023-05-05T00:29:28.343Z,9.430439
2023-05-05T00:30:28.325Z,9.430387
2023-05-05T00:31:28.339Z,9.430378
2023-05-05T00:32:28.427Z,9.430366
2023-05-05T00:33:28.295Z,9.430384
2023-05-05T00:34:28.269Z,9.430381
2023-05-05T00:35:28.266Z,9.430373
2023-05-05T00:36:28.211Z,9.430372
2023-05-05T00:37:28.222Z,9.430370
2023-05-05T00:38:28.211Z,9.430394
2023-05-05T00:39:28.233Z,9.430414
2023-05-05T00:40:28.220Z,9.430366
2023-05-05T00:41:28.189Z,9.430366
2023-05-05T00:42:28.183Z,9.430388
2023-05-05T00:43:29.174Z,9.430415
2023-05-05T00:44:28.145Z,9.430329
2023-05-05T00:45:28.202Z,9.430329
2023-05-05T00:46:28.246Z,9.430326
2023-05-05T00:47:28.176Z,9.430329
2023-05-05T00:48:28.102Z,9.430326
2023-05-05T00:49:28.151Z,9.430353
2023-05-05T00:50:29.114Z,9.430369
2023-05-05T00:51:28.107Z,9.430345
2023-05-05T00:52:28.078Z,9.430330
2023-05-05T00:53:28.059Z,9.430347
2023-05-05T00:54:28.019Z,9.430301
2023-05-05T00:55:28.044Z,9.430272
2023-05-05T00:56:28.076Z,9.430312
2023-05-05T00:57:29.026Z,9.430320
2023-05-05T00:58:28.053Z,9.430320
2023-05-05T00:59:28.004Z,9.430329
2023-05-05T01:00:28.044Z,9.430338
2023-05-05T01:01:28.028Z,9.430344
2023-05-05T01:02:28.050Z,9.430316
2023-05-05T01:03:28.015Z,9.430322
2023-05-05T01:04:28.006Z,9.430322
2023-05-05T01:05:27.990Z,9.430329
2023-05-05T01:06:27.925Z,9.430358
2023-05-05T01:07:27.951Z,9.430316
2023-05-05T01:08:27.890Z,9.430323
2023-05-05T01:09:27.872Z,9.430398
2023-05-05T01:10:27.911Z,9.430322
2023-05-05T01:11:27.905Z,9.430346
2023-05-05T01:12:27.855Z,9.430339
2023-05-05T01:13:27.860Z,9.430334
2023-05-05T01:14:27.837Z,9.430344
2023-05-05T01:15:27.840Z,9.430389
2023-05-05T01:16:27.832Z,9.430352
2023-05-05T01:17:27.836Z,9.430339
2023-05-05T01:18:27.793Z,9.430355
2023-05-05T01:19:27.793Z,9.430361
2023-05-05T01:20:27.786Z,9.430361
2023-05-05T01:21:27.788Z,9.430333
2023-05-05T01:22:27.772Z,9.430308
2023-05-05T01:23:27.733Z,9.430303
2023-05-05T01:24:27.735Z,9.430339
2023-05-05T01:25:27.702Z,9.430343
2023-05-05T01:26:27.709Z,9.430382
2023-05-05T01:27:27.744Z,9.430367
2023-05-05T01:28:27.697Z,9.430321
2023-05-05T01:29:27.687Z,9.430299
2023-05-05T01:30:27.673Z,9.430305
2023-05-05T01:31:27.661Z,9.430299
2023-05-05T01:32:27.695Z,9.430297
2023-05-05T01:33:28.030Z,9.430304
2023-05-05T01:34:27.619Z,9.430358
2023-05-05T01:35:27.671Z,9.430346
2023-05-05T01:36:27.619Z,9.430325
2023-05-05T01:37:27.602Z,9.430286
2023-05-05T01:38:27.601Z,9.430280
2023-05-05T01:39:27.746Z,9.430331
2023-05-05T01:40:27.561Z,9.430348
2023-05-05T01:41:27.529Z,9.430320
2023-05-05T01:42:27.534Z,9.430331
2023-05-05T01:43:27.567Z,9.430342
2023-05-05T01:44:27.532Z,9.430344
2023-05-05T01:45:27.587Z,9.430352
2023-05-05T01:46:27.478Z,9.430345
2023-05-05T01:47:27.512Z,9.430387
2023-05-05T01:48:27.468Z,9.430310
2023-05-05T01:49:27.456Z,9.430290
2023-05-05T01:50:27.483Z,9.430320
2023-05-05T01:51:27.416Z,9.430333
2023-05-05T01:52:27.415Z,9.430304
2023-05-05T01:53:28.085Z,9.430346
2023-05-05T01:54:27.384Z,9.430321
2023-05-05T01:55:27.701Z,9.430333
2023-05-05T01:56:27.404Z,9.430321
2023-05-05T01:57:27.389Z,9.430321
2023-05-05T01:58:27.395Z,9.430286
2023-05-05T01:59:27.336Z,9.430302
2023-05-05T02:00:27.383Z,9.430326
2023-05-05T02:01:27.393Z,9.430339
2023-05-05T02:02:27.410Z,9.430322
2023-05-05T02:03:27.319Z,9.430275
2023-05-05T02:04:27.276Z,9.430325
2023-05-05T02:05:27.285Z,9.430310
2023-05-05T02:06:27.265Z,9.430306
2023-05-05T02:07:27.285Z,9.430300
2023-05-05T02:08:27.266Z,9.430328
2023-05-05T02:09:27.254Z,9.430276
2023-05-05T02:10:27.363Z,9.430306
2023-05-05T02:11:27.230Z,9.430304
2023-05-05T02:12:27.210Z,9.430355
2023-05-05T02:13:28.111Z,9.430307
2023-05-05T02:14:27.335Z,9.430277
2023-05-05T02:15:27.167Z,9.430338
2023-05-05T02:16:27.188Z,9.430306
2023-05-05T02:17:27.179Z,9.430316
2023-05-05T02:18:27.133Z,9.430348
2023-05-05T02:19:27.123Z,9.430314
2023-05-05T02:20:27.116Z,9.430308
2023-05-05T02:21:27.175Z,9.430303
2023-05-05T02:22:27.109Z,9.430308
2023-05-05T02:23:27.058Z,9.430301
2023-05-05T02:24:27.089Z,9.430301
2023-05-05T02:25:27.050Z,9.430316
2023-05-05T02:26:27.090Z,9.430325
2023-05-05T02:27:27.038Z,9.430299
2023-05-05T02:28:27.037Z,9.430318
2023-05-05T02:29:27.016Z,9.430323
2023-05-05T02:30:27.030Z,9.430290
2023-05-05T02:31:27.052Z,9.430303
2023-05-05T02:32:27.014Z,9.430316
2023-05-05T02:33:26.970Z,9.430314
2023-05-05T02:34:27.609Z,9.430314
2023-05-05T02:35:26.937Z,9.430289
2023-05-05T02:36:26.950Z,9.430323
2023-05-05T02:37:26.932Z,9.430344
2023-05-05T02:38:26.937Z,9.430295
2023-05-05T02:39:26.948Z,9.430281
2023-05-05T02:40:26.986Z,9.430296
2023-05-05T02:41:26.900Z,9.430328
2023-05-05T02:42:26.919Z,9.430307
2023-05-05T02:43:26.917Z,9.430301
2023-05-05T02:44:26.850Z,9.430323
2023-05-05T02:45:26.899Z,9.430356
2023-05-05T02:46:26.849Z,9.430285
2023-05-05T02:47:26.830Z,9.430328
2023-05-05T02:48:26.846Z,9.430341
2023-05-05T02:49:26.806Z,9.430288
2023-05-05T02:50:26.870Z,9.430310
2023-05-05T02:51:26.800Z,9.430339
2023-05-05T02:52:26.782Z,9.430323
2023-05-05T02:53:26.792Z,9.430338
2023-05-05T02:54:26.793Z,9.430322
2023-05-05T02:55:27.035Z,9.430296
2023-05-05T02:56:26.741Z,9.430321
2023-05-05T02:57:26.739Z,9.430321
2023-05-05T02:58:26.689Z,9.430367
2023-05-05T02:59:26.721Z,9.430331
2023-05-05T03:00:26.681Z,9.430315
2023-05-05T03:01:27.587Z,9.430259
2023-05-05T03:02:26.706Z,9.430305
2023-05-05T03:03:26.734Z,9.430311
2023-05-05T03:04:26.681Z,9.430317
2023-05-05T03:05:26.716Z,9.430302
2023-05-05T03:06:26.684Z,9.430370
2023-05-05T03:07:26.682Z,9.430304
2023-05-05T03:08:26.697Z,9.430305
2023-05-05T03:09:26.602Z,9.430309
2023-05-05T03:10:26.534Z,9.430360
2023-05-05T03:11:27.098Z,9.430317
2023-05-05T03:12:26.598Z,9.430315
2023-05-05T03:13:26.575Z,9.430279
2023-05-05T03:14:26.532Z,9.430330
2023-05-05T03:15:26.527Z,9.430281
2023-05-05T03:16:26.585Z,9.430335
2023-05-05T03:17:26.707Z,9.430312
2023-05-05T03:18:26.494Z,9.430314
2023-05-05T03:19:26.459Z,9.430314
2023-05-05T03:20:26.473Z,9.430272
2023-05-05T03:21:26.467Z,9.430278
2023-05-05T03:22:26.447Z,9.430288
2023-05-05T03:23:26.473Z,9.430309
2023-05-05T03:24:26.433Z,9.430314
2023-05-05T03:25:26.445Z,9.430302
2023-05-05T03:26:26.418Z,9.430331
2023-05-05T03:27:26.414Z,9.430327
2023-05-05T03:28:26.361Z,9.430327
2023-05-05T03:29:26.422Z,9.430324
2023-05-05T03:30:26.346Z,9.430330
2023-05-05T03:31:26.400Z,9.430350
2023-05-05T03:32:26.413Z,9.430337
2023-05-05T03:33:26.313Z,9.430322
2023-05-05T03:34:26.310Z,9.430330
2023-05-05T03:35:26.299Z,9.430341
2023-05-05T03:36:27.879Z,9.430327
2023-05-05T03:37:26.265Z,9.430325
2023-05-05T03:38:26.269Z,9.430328
2023-05-05T03:39:26.230Z,9.430328
2023-05-05T03:40:36.349Z,9.430328
2023-05-05T03:41:28.233Z,9.430331
2023-05-05T03:42:26.216Z,9.430300
2023-05-05T03:43:26.206Z,9.430305
2023-05-05T03:44:26.190Z,9.430350
2023-05-05T03:45:26.161Z,9.430305
2023-05-05T03:46:26.162Z,9.430355
2023-05-05T03:47:26.174Z,9.430310
2023-05-05T03:48:26.125Z,9.430325
2023-05-05T03:49:26.150Z,9.430318
2023-05-05T03:50:26.127Z,9.430336
2023-05-05T03:51:26.115Z,9.430325
2023-05-05T03:52:26.106Z,9.430314
2023-05-05T03:53:26.098Z,9.430325
2023-05-05T03:54:26.054Z,9.430317
2023-05-05T03:55:26.063Z,9.430292
2023-05-05T03:56:26.096Z,9.430333
2023-05-05T03:57:26.045Z,9.430322
2023-05-05T03:58:26.129Z,9.430286
2023-05-05T03:59:26.049Z,9.430338
2023-05-05T04:00:26.036Z,9.430333
2023-05-05T04:01:26.053Z,9.430284
2023-05-05T04:02:26.131Z,9.430311
2023-05-05T04:03:26.121Z,9.430317
2023-05-05T04:04:26.086Z,9.430269
2023-05-05T04:05:25.955Z,9.430276
2023-05-05T04:06:25.966Z,9.430328
2023-05-05T04:07:25.954Z,9.430336
2023-05-05T04:08:25.931Z,9.430305
2023-05-05T04:09:25.945Z,9.430334
2023-05-05T04:10:25.919Z,9.430319
2023-05-05T04:11:25.893Z,9.430316
2023-05-05T04:12:25.864Z,9.430307
2023-05-05T04:13:25.913Z,9.430326
2023-05-05T04:14:25.889Z,9.430325
2023-05-05T04:15:25.885Z,9.430340
2023-05-05T04:16:25.862Z,9.430312
2023-05-05T04:17:26.379Z,9.430316
2023-05-05T04:18:25.814Z,9.430338
2023-05-05T04:19:25.854Z,9.430300
2023-05-05T04:20:25.824Z,9.430292
2023-05-05T04:21:25.790Z,9.430303
2023-05-05T04:22:25.828Z,9.430327
2023-05-05T04:23:26.575Z,9.430334
2023-05-05T04:24:26.452Z,9.430321
2023-05-05T04:25:25.760Z,9.430324
2023-05-05T04:26:25.770Z,9.430311
2023-05-05T04:27:25.755Z,9.430317
2023-05-05T04:28:25.726Z,9.430339
2023-05-05T04:29:25.713Z,9.430292
2023-05-05T04:30:25.711Z,9.430321
2023-05-05T04:31:25.725Z,9.430328
2023-05-05T04:32:26.455Z,9.430318
2023-05-05T04:33:25.667Z,9.430302
2023-05-05T04:34:25.649Z,9.430304
2023-05-05T04:35:25.677Z,9.430295
2023-05-05T04:36:25.614Z,9.430337
2023-05-05T04:37:25.642Z,9.430330
2023-05-05T04:38:25.656Z,9.430329
2023-05-05T04:39:25.612Z,9.430329
2023-05-05T04:40:25.591Z,9.430306
2023-05-05T04:41:26.203Z,9.430295
2023-05-05T04:42:25.566Z,9.430341
2023-05-05T04:43:25.582Z,9.430336
2023-05-05T04:44:25.549Z,9.430334
2023-05-05T04:45:25.533Z,9.430331
2023-05-05T04:46:25.557Z,9.430305
2023-05-05T04:47:25.510Z,9.430306
2023-05-05T04:48:26.101Z,9.430317
2023-05-05T04:49:25.517Z,9.430340
2023-05-05T04:50:25.558Z,9.430367
2023-05-05T04:51:25.451Z,9.430352
2023-05-05T04:52:25.402Z,9.430309
2023-05-05T04:53:25.447Z,9.430339
2023-05-05T04:54:26.434Z,9.430342
2023-05-05T04:55:25.403Z,9.430332
2023-05-05T04:56:25.431Z,9.430294
2023-05-05T04:57:25.390Z,9.430309
2023-05-05T04:58:25.658Z,9.430335
2023-05-05T04:59:25.378Z,9.430339
2023-05-05T05:00:25.432Z,9.430345
2023-05-05T05:01:25.410Z,9.430345
2023-05-05T05:02:25.421Z,9.430345
2023-05-05T05:03:25.484Z,9.430309
2023-05-05T05:04:25.369Z,9.430322
2023-05-05T05:05:25.332Z,9.430326
2023-05-05T05:06:25.352Z,9.430317
2023-05-05T05:07:25.287Z,9.430321
2023-05-05T05:08:25.279Z,9.430337
2023-05-05T05:09:25.317Z,9.430326
2023-05-05T05:10:25.283Z,9.430357
2023-05-05T05:11:25.252Z,9.430322
2023-05-05T05:12:25.249Z,9.430302
2023-05-05T05:13:25.413Z,9.430326
2023-05-05T05:14:25.222Z,9.430343
2023-05-05T05:15:25.219Z,9.430327
2023-05-05T05:16:25.194Z,9.430349
2023-05-05T05:17:25.255Z,9.430346
2023-05-05T05:18:25.158Z,9.430311
2023-05-05T05:19:25.166Z,9.430319
2023-05-05T05:20:25.161Z,9.430331
2023-05-05T05:21:26.147Z,9.430323
2023-05-05T05:22:25.160Z,9.430315
2023-05-05T05:23:25.136Z,9.430366
2023-05-05T05:24:25.171Z,9.430318
2023-05-05T05:25:26.032Z,9.430314
2023-05-05T05:26:26.106Z,9.430355
2023-05-05T05:27:25.072Z,9.430331
2023-05-05T05:28:25.104Z,9.430359
2023-05-05T05:29:25.055Z,9.430338
2023-05-05T05:30:25.055Z,9.430292
2023-05-05T05:31:26.563Z,9.430331
2023-05-05T05:32:25.031Z,9.430331
2023-05-05T05:33:25.019Z,9.430346
2023-05-05T05:34:25.571Z,9.430295
2023-05-05T05:35:25.039Z,9.430309
2023-05-05T05:36:25.012Z,9.430341
2023-05-05T05:37:24.966Z,9.430346
2023-05-05T05:38:25.023Z,9.430318
2023-05-05T05:39:24.939Z,9.430289
2023-05-05T05:40:25.006Z,9.430311
2023-05-05T05:41:24.950Z,9.430331
2023-05-05T05:42:24.946Z,9.430332
2023-05-05T05:43:24.903Z,9.430354
2023-05-05T05:44:25.061Z,9.430344
2023-05-05T05:45:24.917Z,9.430346
2023-05-05T05:46:24.922Z,9.430353
2023-05-05T05:47:24.876Z,9.430359
2023-05-05T05:48:24.925Z,9.430362
2023-05-05T05:49:25.596Z,9.430415
2023-05-05T05:50:24.819Z,9.430395
2023-05-05T05:51:24.836Z,9.430385
2023-05-05T05:52:24.845Z,9.430373
2023-05-05T05:53:24.845Z,9.430350
2023-05-05T05:54:24.804Z,9.430333
2023-05-05T05:55:24.772Z,9.430338
2023-05-05T05:56:24.790Z,9.430346
2023-05-05T05:57:24.809Z,9.430343
2023-05-05T05:58:24.734Z,9.430342
2023-05-05T05:59:24.746Z,9.430344
2023-05-05T06:00:24.698Z,9.430332
2023-05-05T06:01:24.743Z,9.430343
2023-05-05T06:02:24.736Z,9.430348
2023-05-05T06:03:24.836Z,9.430327
2023-05-05T06:04:24.718Z,9.430336
2023-05-05T06:05:24.672Z,9.430269
2023-05-05T06:06:24.661Z,9.430304
2023-05-05T06:07:24.618Z,9.430302
2023-05-05T06:08:25.180Z,9.430296
2023-05-05T06:09:25.585Z,9.430266
2023-05-05T06:10:27.585Z,9.430324
2023-05-05T06:11:25.616Z,9.430315
2023-05-05T06:12:24.606Z,9.430325
2023-05-05T06:13:25.887Z,9.430325
2023-05-05T06:14:25.161Z,9.430349
2023-05-05T06:15:24.759Z,9.430319
2023-05-05T06:16:25.191Z,9.430305
2023-05-05T06:17:24.908Z,9.430309
2023-05-05T06:18:24.945Z,9.430348
2023-05-05T06:19:24.854Z,9.430301
2023-05-05T06:20:24.738Z,9.430300
2023-05-05T06:21:24.526Z,9.430305
2023-05-05T06:22:24.669Z,9.430331
2023-05-05T06:23:24.576Z,9.430335
2023-05-05T06:24:24.526Z,9.430329
2023-05-05T06:25:24.684Z,9.430309
2023-05-05T06:26:24.692Z,9.430326
2023-05-05T06:27:24.943Z,9.430334
2023-05-05T06:28:31.165Z,9.430344
2023-05-05T06:29:24.833Z,9.430340
2023-05-05T06:30:24.655Z,9.430341
2023-05-05T06:31:24.684Z,9.430359
2023-05-05T06:32:27.568Z,9.430363
2023-05-05T06:33:24.744Z,9.430362
2023-05-05T06:34:24.523Z,9.430350
2023-05-05T06:35:24.560Z,9.430356
2023-05-05T06:36:24.536Z,9.430324
2023-05-05T06:37:25.192Z,9.430316
2023-05-05T06:38:24.816Z,9.430333
2023-05-05T06:39:24.529Z,9.430324
2023-05-05T06:40:24.539Z,9.430340
2023-05-05T06:41:24.439Z,9.430366
2023-05-05T06:42:24.404Z,9.430409
2023-05-05T06:43:24.677Z,9.430405
2023-05-05T06:44:24.692Z,9.430442
2023-05-05T06:45:24.661Z,9.430343
2023-05-05T06:46:24.672Z,9.430365
2023-05-05T06:48:46.177Z,9.430345
2023-05-05T06:48:48.397Z,9.430345
2023-05-05T06:49:48.580Z,9.430387
2023-05-05T06:52:08.243Z,9.430389
2023-05-05T06:52:10.530Z,9.430389
2023-05-05T06:54:31.674Z,9.430391
2023-05-05T06:54:36.689Z,9.430391
2023-05-05T06:56:54.576Z,9.430348
2023-05-05T06:58:18.415Z,9.430348
2023-05-05T06:58:25.264Z,9.430348
2023-05-05T06:59:20.419Z,9.430333
2023-05-05T07:00:20.155Z,9.430317
2023-05-05T07:01:21.701Z,9.430345
2023-05-05T07:02:20.451Z,9.430361
2023-05-05T07:03:20.398Z,9.430360
2023-05-05T07:04:20.102Z,9.430363
2023-05-05T07:06:40.068Z,9.430363
2023-05-05T07:06:42.358Z,9.430363
2023-05-05T07:07:41.884Z,9.430378
2023-05-05T07:08:42.097Z,9.430372
2023-05-05T07:09:42.001Z,9.430376
2023-05-05T07:10:42.201Z,9.430405
2023-05-05T07:11:41.875Z,9.430379
2023-05-05T07:12:42.217Z,9.430385
2023-05-05T07:13:41.804Z,9.430350
2023-05-05T07:14:41.934Z,9.430362
2023-05-05T07:15:42.188Z,9.430386
2023-05-05T07:16:41.944Z,9.430371
2023-05-05T07:17:42.437Z,9.430375
2023-05-05T07:18:46.007Z,9.430363
2023-05-05T07:19:49.315Z,9.430367
2023-05-05T07:20:46.465Z,9.430353
2023-05-05T07:21:41.529Z,9.430343
2023-05-05T07:22:41.444Z,9.430346
2023-05-05T07:23:41.464Z,9.430359
2023-05-05T07:24:41.489Z,9.430380
2023-05-05T07:25:41.425Z,9.430369
2023-05-05T07:26:41.434Z,9.430370
2023-05-05T07:27:41.437Z,9.430401
2023-05-05T07:28:41.406Z,9.430384
2023-05-05T07:29:41.443Z,9.430345
2023-05-05T07:30:41.414Z,9.430358
2023-05-05T07:31:41.436Z,9.430336
2023-05-05T07:32:41.469Z,9.430367
2023-05-05T07:33:41.345Z,9.430384
2023-05-05T07:34:41.369Z,9.430359
2023-05-05T07:35:41.467Z,9.430356
2023-05-05T07:36:41.344Z,9.430366
2023-05-05T07:37:41.396Z,9.430348
2023-05-05T07:38:41.461Z,9.430338
2023-05-05T07:39:41.285Z,9.430346
2023-05-05T07:40:41.274Z,9.430382
2023-05-05T07:41:41.242Z,9.430398
2023-05-05T07:42:41.257Z,9.430409
2023-05-05T07:43:42.292Z,9.430395
2023-05-05T07:44:41.973Z,9.430369
2023-05-05T07:45:41.250Z,9.430335
2023-05-05T07:46:42.240Z,9.430356
2023-05-05T07:47:41.248Z,9.430365
2023-05-05T07:48:42.164Z,9.430360
2023-05-05T07:49:41.225Z,9.430381
2023-05-05T07:50:41.143Z,9.430365
2023-05-05T07:51:41.183Z,9.430386
2023-05-05T07:52:47.920Z,9.430385
2023-05-05T07:53:43.167Z,9.430388
2023-05-05T07:54:41.132Z,9.430381
2023-05-05T07:55:41.095Z,9.430383
2023-05-05T07:56:41.093Z,9.430384
2023-05-05T07:57:41.131Z,9.430352
2023-05-05T07:58:41.133Z,9.430326
2023-05-05T07:59:41.977Z,9.430375
2023-05-05T08:00:41.064Z,9.430368
2023-05-05T08:01:41.034Z,9.430368
2023-05-05T08:02:41.680Z,9.430340
2023-05-05T08:03:41.040Z,9.430325
2023-05-05T08:04:41.044Z,9.430378
2023-05-05T08:05:40.973Z,9.430368
2023-05-05T08:06:40.994Z,9.430348
2023-05-05T08:07:41.331Z,9.430350
2023-05-05T08:08:40.958Z,9.430343
2023-05-05T08:09:41.021Z,9.430350
2023-05-05T08:10:40.937Z,9.430342
2023-05-05T08:11:40.963Z,9.430345
2023-05-05T08:12:40.971Z,9.430369
2023-05-05T08:13:40.897Z,9.430367
2023-05-05T08:14:40.954Z,9.430336
2023-05-05T08:15:40.977Z,9.430361
2023-05-05T08:16:40.873Z,9.430339
2023-05-05T08:17:40.826Z,9.430326
2023-05-05T08:18:40.888Z,9.430327
2023-05-05T08:19:40.860Z,9.430359
2023-05-05T08:20:40.830Z,9.430376
2023-05-05T08:21:40.801Z,9.430339
2023-05-05T08:22:40.866Z,9.430341
2023-05-05T08:23:40.878Z,9.430343
2023-05-05T08:24:40.781Z,9.430326
2023-05-05T08:25:40.799Z,9.430344
2023-05-05T08:26:40.765Z,9.430305
2023-05-05T08:27:40.737Z,9.430325
2023-05-05T08:28:40.770Z,9.430339
2023-05-05T08:29:40.898Z,9.430366
2023-05-05T08:30:40.747Z,9.430346
2023-05-05T08:31:40.740Z,9.430338
2023-05-05T08:32:40.708Z,9.430344
2023-05-05T08:33:40.656Z,9.430378
2023-05-05T08:34:40.678Z,9.430373
2023-05-05T08:35:40.664Z,9.430355
2023-05-05T08:36:40.682Z,9.430340
2023-05-05T08:37:40.640Z,9.430345
2023-05-05T08:38:40.629Z,9.430330
2023-05-05T08:39:40.731Z,9.430330
2023-05-05T08:40:40.599Z,9.430322
2023-05-05T08:41:40.565Z,9.430348
2023-05-05T08:42:40.574Z,9.430343
2023-05-05T08:43:40.793Z,9.430339
2023-05-05T08:44:40.537Z,9.430346
2023-05-05T08:45:40.808Z,9.430357
2023-05-05T08:46:40.513Z,9.430361
2023-05-05T08:47:41.566Z,9.430327
2023-05-05T08:48:40.573Z,9.430330
2023-05-05T08:49:41.061Z,9.430333
2023-05-05T08:50:40.468Z,9.430341
2023-05-05T08:51:40.519Z,9.430328
2023-05-05T08:52:40.627Z,9.430368
2023-05-05T08:53:40.482Z,9.430415
2023-05-05T08:54:41.606Z,9.430381
2023-05-05T08:55:42.169Z,9.430353
2023-05-05T08:56:41.676Z,9.430334
2023-05-05T08:57:40.371Z,9.430360
2023-05-05T08:58:40.437Z,9.430339
2023-05-05T08:59:40.363Z,9.430314
2023-05-05T09:00:40.391Z,9.430324
2023-05-05T09:01:40.373Z,9.430343
2023-05-05T09:02:40.407Z,9.430338
2023-05-05T09:03:40.330Z,9.430347
2023-05-05T09:04:40.313Z,9.430333
2023-05-05T09:05:40.312Z,9.430309
2023-05-05T09:06:40.293Z,9.430318
2023-05-05T09:07:40.288Z,9.430308
2023-05-05T09:08:40.314Z,9.430313
2023-05-05T09:09:40.315Z,9.430310
2023-05-05T09:10:40.785Z,9.430282
2023-05-05T09:11:40.476Z,9.430332
2023-05-05T09:12:40.363Z,9.430337
2023-05-05T09:13:40.261Z,9.430355
2023-05-05T09:14:40.871Z,9.430342
2023-05-05T09:15:41.090Z,9.430339
2023-05-05T09:16:40.277Z,9.430333
2023-05-05T09:17:40.207Z,9.430314
2023-05-05T09:18:40.194Z,9.430308
2023-05-05T09:19:40.183Z,9.430328
2023-05-05T09:20:40.160Z,9.430354
2023-05-05T09:21:40.135Z,9.430350
2023-05-05T09:22:40.115Z,9.430338
2023-05-05T09:23:40.187Z,9.430360
2023-05-05T09:24:40.233Z,9.430344
2023-05-05T09:25:40.216Z,9.430285
2023-05-05T09:26:40.209Z,9.430295
2023-05-05T09:27:40.186Z,9.430320
2023-05-05T09:28:40.674Z,9.430343
2023-05-05T09:29:40.222Z,9.430340
2023-05-05T09:30:40.278Z,9.430339
2023-05-05T09:31:40.100Z,9.430312
2023-05-05T09:32:40.160Z,9.430358
2023-05-05T09:33:40.132Z,9.430335
2023-05-05T09:34:43.588Z,9.430324
2023-05-05T09:35:40.016Z,9.430326
2023-05-05T09:36:40.016Z,9.430314
2023-05-05T09:37:40.004Z,9.430328
2023-05-05T09:38:39.999Z,9.430365
2023-05-05T09:39:39.975Z,9.430348
2023-05-05T09:40:40.041Z,9.430326
2023-05-05T09:41:39.919Z,9.430294
2023-05-05T09:42:39.962Z,9.430338
2023-05-05T09:43:39.954Z,9.430339
2023-05-05T09:44:39.985Z,9.430323
2023-05-05T09:45:39.900Z,9.430329
2023-05-05T09:46:39.993Z,9.430319
2023-05-05T09:47:39.906Z,9.430326
2023-05-05T09:48:39.878Z,9.430335
2023-05-05T09:49:39.836Z,9.430321
2023-05-05T09:50:39.875Z,9.430320
2023-05-05T09:51:39.876Z,9.430313
2023-05-05T09:52:39.869Z,9.430322
2023-05-05T09:53:39.862Z,9.430313
2023-05-05T09:54:39.792Z,9.430352
2023-05-05T09:55:39.797Z,9.430336
2023-05-05T09:56:40.188Z,9.430330
2023-05-05T09:57:40.234Z,9.430331
2023-05-05T09:58:40.787Z,9.430350
2023-05-05T09:59:39.789Z,9.430363
2023-05-05T10:00:40.033Z,9.430358
2023-05-05T10:01:39.778Z,9.430341
2023-05-05T10:02:40.005Z,9.430336
2023-05-05T10:03:40.098Z,9.430343
2023-05-05T10:04:39.982Z,9.430326
2023-05-05T10:05:39.691Z,9.430332
2023-05-05T10:06:39.722Z,9.430306
2023-05-05T10:07:39.681Z,9.430369
2023-05-05T10:08:39.640Z,9.430384
2023-05-05T10:09:39.688Z,9.430366
2023-05-05T10:10:39.754Z,9.430367
2023-05-05T10:11:39.604Z,9.430355
2023-05-05T10:12:39.607Z,9.430354
2023-05-05T10:13:39.636Z,9.430328
2023-05-05T10:14:39.599Z,9.430306
2023-05-05T10:15:39.737Z,9.430314
2023-05-05T10:16:39.694Z,9.430344
2023-05-05T10:17:41.332Z,9.430350
2023-05-05T10:18:39.599Z,9.430346
2023-05-05T10:19:39.548Z,9.430358
2023-05-05T10:20:39.587Z,9.430339
2023-05-05T10:21:41.446Z,9.430331
2023-05-05T10:22:39.589Z,9.430331
2023-05-05T10:23:41.013Z,9.430343
2023-05-05T10:24:39.509Z,9.430365
2023-05-05T10:25:39.538Z,9.430354
2023-05-05T10:26:39.447Z,9.430325
2023-05-05T10:27:40.479Z,9.430344
2023-05-05T10:28:39.456Z,9.430349
2023-05-05T10:29:39.429Z,9.430337
2023-05-05T10:30:39.428Z,9.430319
2023-05-05T10:31:39.545Z,9.430303
2023-05-05T10:33:40.470Z,9.430355
2023-05-05T10:34:39.462Z,9.430302
2023-05-05T10:35:39.553Z,9.430318
2023-05-05T10:36:39.377Z,9.430318
2023-05-05T10:37:39.350Z,9.430371
2023-05-05T10:38:39.345Z,9.430435
2023-05-05T10:39:39.347Z,9.430399
2023-05-05T10:40:39.305Z,9.430352
2023-05-05T10:41:39.317Z,9.430356
2023-05-05T10:42:39.309Z,9.430361
2023-05-05T10:43:39.376Z,9.430398
2023-05-05T10:44:39.364Z,9.430350
2023-05-05T10:45:39.395Z,9.430334
2023-05-05T10:46:39.330Z,9.430363
2023-05-05T10:47:39.639Z,9.430342
2023-05-05T10:48:39.282Z,9.430356
2023-05-05T10:49:39.276Z,9.430321
2023-05-05T10:50:39.275Z,9.430298
2023-05-05T10:51:40.663Z,9.430324
2023-05-05T10:52:40.235Z,9.430296
2023-05-05T10:53:40.138Z,9.430329
2023-05-05T10:54:39.157Z,9.430352
2023-05-05T10:55:39.191Z,9.430347
2023-05-05T10:56:39.197Z,9.430349
2023-05-05T10:57:39.311Z,9.430371
2023-05-05T10:58:51.072Z,9.430346
2023-05-05T10:59:41.194Z,9.430360
2023-05-05T11:00:39.169Z,9.430330
2023-05-05T11:01:39.236Z,9.430339
2023-05-05T11:02:39.120Z,9.430342
2023-05-05T11:03:39.225Z,9.430373
2023-05-05T11:04:40.089Z,9.430343
2023-05-05T11:05:39.075Z,9.430329
2023-05-05T11:06:39.126Z,9.430334
2023-05-05T11:07:39.054Z,9.430324
2023-05-05T11:08:39.049Z,9.430342
2023-05-05T11:09:39.102Z,9.430335
2023-05-05T11:10:39.030Z,9.430346
2023-05-05T11:11:39.117Z,9.430352
2023-05-05T11:12:39.123Z,9.430364
2023-05-05T11:13:38.980Z,9.430338
2023-05-05T11:14:39.053Z,9.430335
2023-05-05T11:15:39.637Z,9.430351
2023-05-05T11:16:38.971Z,9.430338
2023-05-05T11:17:38.978Z,9.430343
2023-05-05T11:18:38.977Z,9.430337
2023-05-05T11:19:38.997Z,9.430352
2023-05-05T11:20:38.950Z,9.430377
2023-05-05T11:21:38.957Z,9.430367
2023-05-05T11:22:39.709Z,9.430370
2023-05-05T11:23:39.469Z,9.430362
2023-05-05T11:24:38.916Z,9.430365
2023-05-05T11:25:39.416Z,9.430362
2023-05-05T11:26:38.977Z,9.430380
2023-05-05T11:27:38.993Z,9.430367
2023-05-05T11:28:38.967Z,9.430388
2023-05-05T11:29:39.299Z,9.430369
2023-05-05T11:30:38.905Z,9.430349
2023-05-05T11:31:38.982Z,9.430342
2023-05-05T11:32:38.936Z,9.430413
2023-05-05T11:33:38.890Z,9.430392
2023-05-05T11:34:38.816Z,9.430389
2023-05-05T11:35:39.151Z,9.430357
2023-05-05T11:36:39.110Z,9.430332
2023-05-05T11:37:38.876Z,9.430350
2023-05-05T11:38:38.772Z,9.430336
2023-05-05T11:39:38.835Z,9.430358
2023-05-05T11:40:39.065Z,9.430346
2023-05-05T11:41:39.025Z,9.430321
2023-05-05T11:42:39.959Z,9.430323
2023-05-05T11:43:39.476Z,9.430293
2023-05-05T11:44:38.904Z,9.430347
2023-05-05T11:45:38.739Z,9.430308
2023-05-05T11:46:38.792Z,9.430342
2023-05-05T11:47:39.709Z,9.430318